createdAt,value
2022-11-24T00:09:38.647Z,8.80
2022-11-24T00:19:40.369Z,8.90
2022-11-24T00:29:42.023Z,8.90
2022-11-24T00:39:43.664Z,8.90
2022-11-24T00:49:45.301Z,8.90
2022-11-24T00:59:46.927Z,8.90
2022-11-24T01:09:48.555Z,8.80
2022-11-24T01:19:51.229Z,8.80
2022-11-24T01:29:52.891Z,8.80
2022-11-24T01:39:54.577Z,8.80
2022-11-24T01:49:59.735Z,8.70
2022-11-24T02:00:06.286Z,8.70
2022-11-24T02:10:12.948Z,8.70
2022-11-24T02:20:15.437Z,8.90
2022-11-24T02:30:17.408Z,8.90
2022-11-24T02:40:25.014Z,9.00
2022-11-24T02:50:26.752Z,9.20
2022-11-24T03:00:28.455Z,9.20
2022-11-24T03:10:30.298Z,9.30
2022-11-24T03:30:34.051Z,9.30
2022-11-24T03:40:35.781Z,9.30
2022-11-24T03:50:37.398Z,9.30
2022-11-24T04:00:39.184Z,9.30
2022-11-24T04:10:41.349Z,9.30
2022-11-24T04:20:43.387Z,9.30
2022-11-24T04:30:45.390Z,9.20
2022-11-24T04:40:47.085Z,9.20
2022-11-24T04:50:48.707Z,9.20
2022-11-24T05:08:56.534Z,9.20
2022-11-24T05:18:58.177Z,9.20
2022-11-24T05:28:59.812Z,9.30
2022-11-24T05:39:01.433Z,9.30
2022-11-24T05:49:03.377Z,9.30
2022-11-24T05:59:09.628Z,9.50
2022-11-24T06:09:11.718Z,9.40
2022-11-24T06:19:13.536Z,9.40
2022-11-24T06:29:15.303Z,9.40
2022-11-24T06:39:17.045Z,9.50
2022-11-24T06:49:19.005Z,9.50
2022-11-24T06:59:21.406Z,9.40
2022-11-24T07:09:22.992Z,9.40
2022-11-24T07:19:25.329Z,9.50
2022-11-24T07:29:27.068Z,9.50
2022-11-24T07:39:28.663Z,9.50
2022-11-24T07:49:30.276Z,9.60
2022-11-24T08:08:02.686Z,9.80
2022-11-24T08:18:04.495Z,9.80
2022-11-24T08:28:06.135Z,9.90
2022-11-24T08:38:07.817Z,9.90
2022-11-24T08:55:09.486Z,10.00
2022-11-24T09:05:35.848Z,10.10
2022-11-24T09:15:35.487Z,10.20
2022-11-24T09:25:37.702Z,10.30
2022-11-24T09:35:39.386Z,10.40
2022-11-24T09:46:05.856Z,10.70
2022-11-24T09:56:22.351Z,10.70
2022-11-24T10:06:51.534Z,10.70
2022-11-24T10:17:05.208Z,10.90
2022-11-24T10:27:18.437Z,10.90
2022-11-24T10:37:33.746Z,11.00
2022-11-24T10:47:35.353Z,11.20
2022-11-24T10:57:39.685Z,11.20
2022-11-24T11:07:41.663Z,11.40
2022-11-24T11:17:44.906Z,11.40
2022-11-24T11:27:46.973Z,11.60
2022-11-24T11:37:49.567Z,11.50
2022-11-24T11:47:57.241Z,11.50
2022-11-24T11:58:15.862Z,11.40
2022-11-24T12:09:18.498Z,11.50
2022-11-24T12:19:49.633Z,11.60
2022-11-24T12:30:13.004Z,11.50
2022-11-24T12:40:40.908Z,11.40
2022-11-24T12:50:47.212Z,11.40
2022-11-24T13:00:58.850Z,11.40
2022-11-24T13:11:22.310Z,11.30
2022-11-24T13:21:35.809Z,11.30
2022-11-24T13:31:37.548Z,11.30
2022-11-24T13:41:42.267Z,11.30
2022-11-24T14:01:56.841Z,11.40
2022-11-24T14:12:20.349Z,11.40
2022-11-24T14:22:41.012Z,11.30
2022-11-24T14:32:57.493Z,11.40
2022-11-24T14:42:59.172Z,11.40
2022-11-24T14:53:00.886Z,11.30
2022-11-24T15:03:02.526Z,11.30
2022-11-24T15:13:20.451Z,11.20
2022-11-24T15:23:26.088Z,11.10
2022-11-24T15:33:27.986Z,10.90
2022-11-24T15:43:40.711Z,10.90
2022-11-24T15:54:00.624Z,10.80
2022-11-24T16:04:03.388Z,10.80
2022-11-24T16:14:05.296Z,10.70
2022-11-24T16:24:07.441Z,10.70
2022-11-24T16:44:11.428Z,10.30
2022-11-24T16:54:13.566Z,10.20
2022-11-24T17:04:15.245Z,10.20
2022-11-24T17:14:16.877Z,10.10
2022-11-24T17:24:18.523Z,9.90
2022-11-24T17:34:20.427Z,9.60
2022-11-24T17:44:22.182Z,9.60
2022-11-24T17:54:45.477Z,9.30
2022-11-24T18:04:45.452Z,9.00
2022-11-24T18:14:47.102Z,8.80
2022-11-24T18:24:48.746Z,8.60
2022-11-24T18:34:51.063Z,8.40
2022-11-24T18:44:54.302Z,8.40
2022-11-24T18:54:56.087Z,8.00
2022-11-24T19:04:57.691Z,8.00
2022-11-24T19:14:59.349Z,7.70
2022-11-24T19:25:00.954Z,7.60
2022-11-24T19:35:02.583Z,7.60
2022-11-24T19:45:04.832Z,7.40
2022-11-24T19:55:06.709Z,7.40
2022-11-24T20:05:08.429Z,7.30
2022-11-24T20:15:10.131Z,7.10
2022-11-24T20:25:11.783Z,7.00
2022-11-24T20:35:18.038Z,6.90
2022-11-24T20:45:20.145Z,6.90
2022-11-24T20:55:21.857Z,6.80
2022-11-24T21:05:24.157Z,6.70
2022-11-24T21:15:25.954Z,6.70
2022-11-24T21:25:27.556Z,6.70
2022-11-24T21:35:29.591Z,6.50
2022-11-24T21:45:34.236Z,6.50
2022-11-24T21:55:35.890Z,6.50
2022-11-24T22:05:37.495Z,6.30
2022-11-24T22:15:39.115Z,6.40
2022-11-24T22:25:40.744Z,6.40
2022-11-24T22:35:42.430Z,6.30
2022-11-24T22:45:44.111Z,6.20
2022-11-24T22:55:45.751Z,6.10
2022-11-24T23:05:47.400Z,6.10
2022-11-24T23:15:49.020Z,5.90
2022-11-24T23:35:52.658Z,5.90
2022-11-24T23:45:54.417Z,5.90
2022-11-24T23:55:56.235Z,5.80
